createdAt,value
2022-12-09T00:00:03.289Z,98723.31
2022-12-09T00:03:05.571Z,98723.67
2022-12-09T00:06:28.269Z,98722.52
2022-12-09T00:09:30.782Z,98722.53
2022-12-09T00:12:32.396Z,98724.92
2022-12-09T00:15:34.294Z,98723.05
2022-12-09T00:18:37.206Z,98722.02
2022-12-09T00:21:39.027Z,98723.39
2022-12-09T00:24:40.957Z,98721.52
2022-12-09T00:27:42.663Z,98727.32
2022-12-09T00:30:44.404Z,98725.78
2022-12-09T00:33:46.539Z,98726.34
2022-12-09T00:36:48.418Z,98726.70
2022-12-09T00:39:50.440Z,98729.95
2022-12-09T00:42:52.209Z,98736.30
2022-12-09T00:45:54.006Z,98735.48
2022-12-09T00:48:56.342Z,98736.54
2022-12-09T00:51:58.058Z,98736.55
2022-12-09T00:54:59.684Z,98738.82
2022-12-09T00:58:02.021Z,98735.46
2022-12-09T01:01:04.100Z,98737.35
2022-12-09T01:04:09.027Z,98739.21
2022-12-09T01:07:11.367Z,98738.52
2022-12-09T01:10:13.356Z,98735.77
2022-12-09T01:13:16.504Z,98735.11
2022-12-09T01:16:24.970Z,98733.80
2022-12-09T01:19:27.017Z,98735.02
2022-12-09T01:22:28.843Z,98740.50
2022-12-09T01:25:30.665Z,98743.75
2022-12-09T01:28:34.330Z,98748.90
2022-12-09T01:31:36.267Z,98747.41
2022-12-09T01:34:38.387Z,98746.27
2022-12-09T01:37:40.216Z,98742.16
2022-12-09T01:40:46.564Z,98740.11
2022-12-09T01:44:18.884Z,98732.77
2022-12-09T01:47:22.917Z,98730.52
2022-12-09T01:50:25.841Z,98731.82
2022-12-09T01:53:30.425Z,98728.52
2022-12-09T01:56:35.002Z,98731.63
2022-12-09T01:59:37.254Z,98732.98
2022-12-09T02:02:40.147Z,98740.46
2022-12-09T02:05:42.695Z,98742.98
2022-12-09T02:08:45.634Z,98738.86
2022-12-09T02:12:17.938Z,98739.84
2022-12-09T02:15:27.776Z,98735.57
2022-12-09T02:18:43.932Z,98733.75
2022-12-09T02:21:58.174Z,98731.98
2022-12-09T02:25:14.145Z,98729.39
2022-12-09T02:28:31.036Z,98727.86
2022-12-09T02:32:08.406Z,98729.22
2022-12-09T02:35:15.513Z,98725.63
2022-12-09T02:38:28.285Z,98717.80
2022-12-09T02:41:32.837Z,98721.23
2022-12-09T02:44:35.936Z,98722.12
2022-12-09T02:47:41.934Z,98722.02
2022-12-09T02:50:45.708Z,98719.20
2022-12-09T02:53:51.618Z,98713.29
2022-12-09T02:56:56.554Z,98708.55
2022-12-09T02:59:58.394Z,98704.61
2022-12-09T03:03:03.129Z,98708.85
2022-12-09T03:06:10.308Z,98712.92
2022-12-09T03:09:18.767Z,98710.46
2022-12-09T03:12:20.792Z,98707.15
2022-12-09T03:15:26.355Z,98712.34
2022-12-09T03:18:30.159Z,98712.88
2022-12-09T03:21:33.974Z,98712.91
2022-12-09T03:24:44.323Z,98710.19
2022-12-09T03:27:49.269Z,98704.10
2022-12-09T03:30:53.958Z,98697.34
2022-12-09T03:34:00.697Z,98695.39
2022-12-09T03:37:03.165Z,98692.02
2022-12-09T03:40:13.647Z,98693.20
2022-12-09T03:43:20.363Z,98695.27
2022-12-09T03:46:22.982Z,98699.58
2022-12-09T03:49:25.380Z,98696.85
2022-12-09T03:52:41.540Z,98700.63
2022-12-09T03:55:58.301Z,98701.84
2022-12-09T03:59:02.192Z,98702.21
2022-12-09T04:02:07.204Z,98702.48
2022-12-09T04:05:09.863Z,98696.55
2022-12-09T04:08:12.972Z,98695.59
2022-12-09T04:11:15.166Z,98693.27
2022-12-09T04:14:17.161Z,98692.11
2022-12-09T04:17:19.619Z,98695.23
2022-12-09T04:20:21.394Z,98695.42
2022-12-09T04:23:23.293Z,98690.52
2022-12-09T04:26:25.071Z,98691.09
2022-12-09T04:29:26.938Z,98690.30
2022-12-09T04:32:30.424Z,98698.06
2022-12-09T04:35:32.573Z,98698.67
2022-12-09T04:38:34.561Z,98700.42
2022-12-09T04:41:36.969Z,98697.05
2022-12-09T04:44:38.826Z,98695.88
2022-12-09T04:47:40.589Z,98690.33
2022-12-09T04:50:42.451Z,98693.10
2022-12-09T04:53:44.481Z,98689.92
2022-12-09T04:56:46.269Z,98691.86
2022-12-09T04:59:48.417Z,98694.36
2022-12-09T05:02:50.779Z,98695.73
2022-12-09T05:05:53.246Z,98697.86
2022-12-09T05:08:55.794Z,98699.66
2022-12-09T05:11:58.309Z,98706.40
2022-12-09T05:15:00.293Z,98711.27
2022-12-09T05:18:03.161Z,98708.26
2022-12-09T05:21:07.537Z,98705.25
2022-12-09T05:24:10.627Z,98706.37
2022-12-09T05:27:13.739Z,98710.69
2022-12-09T05:30:15.777Z,98712.12
2022-12-09T05:33:17.676Z,98709.98
2022-12-09T05:36:22.336Z,98711.12
2022-12-09T05:39:24.698Z,98711.23
2022-12-09T05:42:26.958Z,98712.52
2022-12-09T05:45:29.007Z,98706.03
2022-12-09T05:48:31.099Z,98706.27
2022-12-09T05:51:33.507Z,98704.95
2022-12-09T05:54:35.601Z,98707.66
2022-12-09T05:57:38.176Z,98704.81
2022-12-09T06:00:40.795Z,98705.06
2022-12-09T06:03:42.954Z,98705.66
2022-12-09T06:06:45.220Z,98701.07
2022-12-09T06:09:47.368Z,98703.77
2022-12-09T06:12:49.606Z,98701.04
2022-12-09T06:15:51.950Z,98693.90
2022-12-09T06:18:54.327Z,98688.30
2022-12-09T06:21:56.607Z,98693.87
2022-12-09T06:24:58.681Z,98693.95
2022-12-09T06:28:00.374Z,98693.28
2022-12-09T06:31:02.293Z,98693.21
2022-12-09T06:34:04.803Z,98691.73
2022-12-09T06:37:07.460Z,98700.73
2022-12-09T06:40:10.245Z,98705.72
2022-12-09T06:43:12.299Z,98707.39
2022-12-09T06:46:16.354Z,98716.36
2022-12-09T06:49:18.597Z,98716.95
2022-12-09T06:52:21.032Z,98713.14
2022-12-09T06:55:23.378Z,98708.56
2022-12-09T06:58:25.509Z,98711.20
2022-12-09T07:01:27.664Z,98713.06
2022-12-09T07:04:30.587Z,98712.80
2022-12-09T07:07:33.278Z,98708.14
2022-12-09T07:10:36.230Z,98707.17
2022-12-09T07:13:38.110Z,98707.19
2022-12-09T07:16:39.951Z,98714.64
2022-12-09T07:19:41.889Z,98717.30
2022-12-09T07:22:44.278Z,98724.45
2022-12-09T07:25:54.630Z,98724.20
2022-12-09T07:28:56.678Z,98716.86
2022-12-09T07:31:58.686Z,98704.40
2022-12-09T07:35:00.641Z,98696.66
2022-12-09T07:38:03.045Z,98699.59
2022-12-09T07:41:09.596Z,98701.61
2022-12-09T07:44:12.060Z,98694.98
2022-12-09T07:47:14.160Z,98686.22
2022-12-09T07:50:16.143Z,98686.19
2022-12-09T07:53:18.268Z,98684.67
2022-12-09T07:56:20.978Z,98679.08
2022-12-09T07:59:23.557Z,98677.83
2022-12-09T08:02:25.733Z,98670.18
2022-12-09T08:05:27.813Z,98669.06
2022-12-09T08:08:31.497Z,98669.08
2022-12-09T08:11:35.087Z,98667.14
2022-12-09T08:14:37.344Z,98667.38
2022-12-09T08:17:39.619Z,98670.83
2022-12-09T08:20:41.937Z,98671.14
2022-12-09T08:23:44.900Z,98673.40
2022-12-09T08:26:47.282Z,98675.81
2022-12-09T08:29:49.495Z,98680.47
2022-12-09T08:32:51.654Z,98679.29
2022-12-09T08:35:54.085Z,98674.30
2022-12-09T08:38:58.830Z,98680.27
2022-12-09T08:42:00.965Z,98681.85
2022-12-09T08:45:03.258Z,98683.50
2022-12-09T08:48:06.177Z,98681.21
2022-12-09T08:51:09.966Z,98676.46
2022-12-09T08:54:12.098Z,98672.29
2022-12-09T08:57:14.173Z,98676.56
2022-12-09T09:00:16.862Z,98670.25
2022-12-09T09:03:19.135Z,98668.80
2022-12-09T09:06:21.367Z,98665.88
2022-12-09T09:09:23.754Z,98662.11
2022-12-09T09:12:26.125Z,98664.34
2022-12-09T09:15:28.292Z,98655.73
2022-12-09T09:18:30.242Z,98659.29
2022-12-09T09:21:33.116Z,98653.97
2022-12-09T09:24:35.136Z,98651.35
2022-12-09T09:27:37.934Z,98653.29
2022-12-09T09:30:40.002Z,98652.83
2022-12-09T09:33:43.434Z,98649.28
2022-12-09T09:36:45.620Z,98650.01
2022-12-09T09:39:47.901Z,98646.48
2022-12-09T09:42:51.666Z,98643.91
2022-12-09T09:45:55.286Z,98640.53
2022-12-09T09:48:58.242Z,98639.84
2022-12-09T09:52:05.261Z,98631.27
2022-12-09T09:55:19.013Z,98633.39
2022-12-09T09:58:39.865Z,98630.70
2022-12-09T10:02:05.174Z,98623.20
2022-12-09T10:05:14.382Z,98623.27
2022-12-09T10:08:47.809Z,98619.48
2022-12-09T10:12:01.050Z,98620.89
2022-12-09T10:15:19.588Z,98623.35
2022-12-09T10:18:29.679Z,98618.52
2022-12-09T10:21:32.747Z,98616.12
2022-12-09T10:24:39.962Z,98617.66
2022-12-09T10:28:17.554Z,98618.92
2022-12-09T10:31:20.304Z,98619.30
2022-12-09T10:34:22.277Z,98614.05
2022-12-09T10:37:30.776Z,98604.63
2022-12-09T10:40:38.270Z,98606.23
2022-12-09T10:43:44.168Z,98607.05
2022-12-09T10:46:47.793Z,98604.39
2022-12-09T10:49:52.703Z,98597.44
2022-12-09T10:52:55.455Z,98597.04
2022-12-09T10:55:59.047Z,98593.89
2022-12-09T10:59:26.527Z,98584.93
2022-12-09T11:02:30.443Z,98580.39
2022-12-09T11:05:36.094Z,98580.77
2022-12-09T11:08:40.997Z,98584.98
2022-12-09T11:11:46.323Z,98577.88
2022-12-09T11:14:56.955Z,98579.67
2022-12-09T11:18:16.044Z,98572.46
2022-12-09T11:21:34.186Z,98581.23
2022-12-09T11:24:36.988Z,98583.45
2022-12-09T11:27:54.577Z,98582.70
2022-12-09T11:31:29.637Z,98578.95
2022-12-09T11:34:32.580Z,98575.64
2022-12-09T11:37:38.843Z,98570.80
2022-12-09T11:40:40.484Z,98573.27
2022-12-09T11:43:48.940Z,98575.66
2022-12-09T11:47:00.380Z,98574.52
2022-12-09T11:50:21.944Z,98572.55
2022-12-09T11:53:30.147Z,98570.27
2022-12-09T11:56:33.093Z,98564.25
2022-12-09T11:59:40.864Z,98568.66
2022-12-09T12:02:46.830Z,98566.05
2022-12-09T12:05:51.295Z,98562.48
2022-12-09T12:09:29.616Z,98559.30
2022-12-09T12:12:40.478Z,98556.27
2022-12-09T12:16:00.908Z,98555.45
2022-12-09T12:19:02.662Z,98549.31
2022-12-09T12:22:22.694Z,98542.41
2022-12-09T12:25:38.848Z,98536.63
2022-12-09T12:28:56.674Z,98518.65
2022-12-09T12:32:31.573Z,98514.19
2022-12-09T12:35:57.727Z,98509.77
2022-12-09T12:39:09.114Z,98502.46
2022-12-09T12:42:23.167Z,98508.63
2022-12-09T12:45:50.266Z,98516.11
2022-12-09T12:49:28.125Z,98515.35
2022-12-09T12:52:58.102Z,98516.88
2022-12-09T12:56:02.675Z,98510.52
2022-12-09T12:59:22.016Z,98514.35
2022-12-09T13:02:42.705Z,98518.21
2022-12-09T13:05:47.929Z,98519.58
2022-12-09T13:09:03.013Z,98520.02
2022-12-09T13:12:49.265Z,98511.85
2022-12-09T13:15:53.692Z,98510.99
2022-12-09T13:19:06.037Z,98517.61
2022-12-09T13:22:16.193Z,98510.97
2022-12-09T13:25:23.776Z,98506.64
2022-12-09T13:28:31.493Z,98504.61
2022-12-09T13:31:35.544Z,98503.77
2022-12-09T13:34:41.362Z,98496.24
2022-12-09T13:37:43.051Z,98493.56
2022-12-09T13:40:45.238Z,98492.83
2022-12-09T13:43:46.780Z,98489.71
2022-12-09T13:46:48.706Z,98480.81
2022-12-09T13:50:02.630Z,98485.45
2022-12-09T13:53:54.548Z,98480.27
2022-12-09T13:57:24.852Z,98472.75
2022-12-09T14:00:26.985Z,98470.23
2022-12-09T14:03:34.950Z,98459.95
2022-12-09T14:06:47.121Z,98449.94
2022-12-09T14:09:53.745Z,98447.29
2022-12-09T14:12:55.557Z,98440.98
2022-12-09T14:16:15.892Z,98435.44
2022-12-09T14:19:23.659Z,98429.21
2022-12-09T14:22:25.355Z,98421.06
2022-12-09T14:25:28.391Z,98431.11
2022-12-09T14:28:32.816Z,98445.25
2022-12-09T14:31:58.254Z,98448.23
2022-12-09T14:35:04.311Z,98437.65
2022-12-09T14:39:07.974Z,98427.40
2022-12-09T14:42:13.424Z,98420.49
2022-12-09T14:45:42.966Z,98420.27
2022-12-09T14:48:51.209Z,98433.84
2022-12-09T14:51:58.082Z,98442.86
2022-12-09T14:55:02.677Z,98441.09
2022-12-09T14:58:05.088Z,98443.94
2022-12-09T15:01:06.958Z,98446.74
2022-12-09T15:04:24.422Z,98445.13
2022-12-09T15:07:34.194Z,98448.23
2022-12-09T15:10:37.913Z,98447.40
2022-12-09T15:13:42.737Z,98447.72
2022-12-09T15:16:49.118Z,98442.89
2022-12-09T15:20:00.155Z,98434.15
2022-12-09T15:23:06.444Z,98426.09
2022-12-09T15:26:19.827Z,98420.63
2022-12-09T15:29:22.635Z,98424.70
2022-12-09T15:32:26.954Z,98420.61
2022-12-09T15:35:32.257Z,98418.91
2022-12-09T15:38:44.217Z,98409.36
2022-12-09T15:42:07.192Z,98398.63
2022-12-09T15:45:18.356Z,98395.11
2022-12-09T15:48:23.904Z,98389.70
2022-12-09T15:51:26.879Z,98382.08
2022-12-09T15:54:32.235Z,98376.87
2022-12-09T15:57:35.783Z,98374.28
2022-12-09T16:00:42.724Z,98370.46
2022-12-09T16:03:49.424Z,98363.90
2022-12-09T16:06:51.109Z,98351.42
2022-12-09T16:10:13.162Z,98343.66
2022-12-09T16:13:16.587Z,98343.95
2022-12-09T16:16:58.228Z,98338.92
2022-12-09T16:20:31.109Z,98335.34
2022-12-09T16:23:32.790Z,98333.80
2022-12-09T16:26:35.969Z,98330.02
2022-12-09T16:29:37.645Z,98326.66
2022-12-09T16:32:48.592Z,98320.23
2022-12-09T16:36:00.129Z,98313.33
2022-12-09T16:39:04.879Z,98306.26
2022-12-09T16:42:20.619Z,98303.82
2022-12-09T16:45:35.752Z,98302.34
2022-12-09T16:48:37.423Z,98301.86
2022-12-09T16:51:39.696Z,98295.33
2022-12-09T16:54:43.919Z,98292.63
2022-12-09T16:57:45.830Z,98285.27
2022-12-09T17:00:48.485Z,98278.94
2022-12-09T17:03:53.832Z,98277.63
2022-12-09T17:06:55.555Z,98277.73
2022-12-09T17:09:57.225Z,98272.20
2022-12-09T17:12:59.047Z,98264.30
2022-12-09T17:16:01.989Z,98266.79
2022-12-09T17:19:06.974Z,98267.31
2022-12-09T17:22:08.948Z,98267.55
2022-12-09T17:25:10.971Z,98265.98
2022-12-09T17:28:12.738Z,98268.00
2022-12-09T17:31:18.303Z,98266.16
2022-12-09T17:34:20.542Z,98263.80
2022-12-09T17:37:22.432Z,98266.12
2022-12-09T17:40:24.014Z,98262.56
2022-12-09T17:43:25.757Z,98256.29
2022-12-09T17:46:28.255Z,98255.73
2022-12-09T17:49:29.985Z,98250.72
2022-12-09T17:52:31.797Z,98244.09
2022-12-09T17:55:33.722Z,98241.89
2022-12-09T17:58:36.054Z,98240.35
2022-12-09T18:01:38.891Z,98233.55
2022-12-09T18:04:40.652Z,98230.63
2022-12-09T18:07:42.328Z,98231.58
2022-12-09T18:10:44.321Z,98229.23
2022-12-09T18:13:46.751Z,98226.20
2022-12-09T18:16:49.398Z,98218.58
2022-12-09T18:19:51.268Z,98214.92
2022-12-09T18:22:52.996Z,98212.81
2022-12-09T18:25:54.756Z,98206.48
2022-12-09T18:28:57.506Z,98199.54
2022-12-09T18:31:59.431Z,98199.38
2022-12-09T18:35:01.261Z,98199.86
2022-12-09T18:38:09.579Z,98197.38
2022-12-09T18:41:20.309Z,98195.66
2022-12-09T18:44:21.974Z,98195.73
2022-12-09T18:47:23.681Z,98190.81
2022-12-09T18:50:25.300Z,98186.55
2022-12-09T18:53:27.463Z,98181.27
2022-12-09T18:56:30.883Z,98175.08
2022-12-09T18:59:32.740Z,98170.18
2022-12-09T19:02:34.579Z,98170.66
2022-12-09T19:05:41.957Z,98164.09
2022-12-09T19:08:43.634Z,98160.11
2022-12-09T19:11:46.492Z,98156.48
2022-12-09T19:14:48.194Z,98152.80
2022-12-09T19:17:49.897Z,98150.84
2022-12-09T19:20:51.558Z,98141.13
2022-12-09T19:23:54.357Z,98145.58
2022-12-09T19:26:57.934Z,98139.63
2022-12-09T19:29:59.650Z,98133.10
2022-12-09T19:33:01.480Z,98131.13
2022-12-09T19:36:04.192Z,98134.58
2022-12-09T19:39:08.340Z,98132.27
2022-12-09T19:42:10.207Z,98131.27
2022-12-09T19:45:14.177Z,98128.31
2022-12-09T19:48:16.481Z,98125.67
2022-12-09T19:51:19.341Z,98122.52
2022-12-09T19:54:26.755Z,98118.56
2022-12-09T19:57:30.168Z,98113.48
2022-12-09T20:00:33.697Z,98115.66
2022-12-09T20:03:40.026Z,98108.24
2022-12-09T20:06:43.301Z,98104.89
2022-12-09T20:09:45.061Z,98099.78
2022-12-09T20:12:46.665Z,98098.82
2022-12-09T20:15:48.474Z,98099.92
2022-12-09T20:18:52.054Z,98097.94
2022-12-09T20:21:53.819Z,98094.44
2022-12-09T20:24:55.751Z,98096.79
2022-12-09T20:27:57.477Z,98094.52
2022-12-09T20:31:16.943Z,98088.13
2022-12-09T20:34:18.888Z,98085.04
2022-12-09T20:37:20.532Z,98077.35
2022-12-09T20:40:22.296Z,98076.08
2022-12-09T20:43:24.025Z,98066.74
2022-12-09T20:46:31.141Z,98066.89
2022-12-09T20:49:32.878Z,98059.45
2022-12-09T20:52:34.513Z,98060.21
2022-12-09T20:55:36.164Z,98057.02
2022-12-09T20:58:38.877Z,98060.23
2022-12-09T21:01:41.305Z,98062.31
2022-12-09T21:04:43.887Z,98067.45
2022-12-09T21:07:45.552Z,98066.15
2022-12-09T21:10:47.219Z,98065.75
2022-12-09T21:13:51.162Z,98066.55
2022-12-09T21:16:52.807Z,98069.21
2022-12-09T21:19:54.568Z,98065.38
2022-12-09T21:23:25.139Z,98065.65
2022-12-09T21:26:19.271Z,98066.15
2022-12-09T21:29:21.099Z,98065.40
2022-12-09T21:32:22.714Z,98071.01
2022-12-09T21:35:24.324Z,98067.42
2022-12-09T21:38:26.074Z,98070.18
2022-12-09T21:41:32.021Z,98067.17
2022-12-09T21:44:34.137Z,98061.98
2022-12-09T21:47:35.808Z,98064.71
2022-12-09T21:50:37.544Z,98059.45
2022-12-09T21:53:40.030Z,98063.16
2022-12-09T21:56:42.012Z,98060.95
2022-12-09T21:59:43.652Z,98058.14
2022-12-09T22:02:46.238Z,98055.52
2022-12-09T22:05:48.043Z,98053.52
2022-12-09T22:08:49.799Z,98054.58
2022-12-09T22:11:51.525Z,98052.23
2022-12-09T22:14:54.676Z,98048.32
2022-12-09T22:17:56.356Z,98047.75
2022-12-09T22:24:25.261Z,98045.73
2022-12-09T22:27:27.615Z,98050.70
2022-12-09T22:30:29.486Z,98049.43
2022-12-09T22:33:31.232Z,98047.30
2022-12-09T22:36:33.110Z,98049.27
2022-12-09T22:39:34.827Z,98042.84
2022-12-09T22:42:36.539Z,98039.52
2022-12-09T22:45:38.289Z,98040.08
2022-12-09T22:48:40.814Z,98039.82
2022-12-09T22:51:43.272Z,98037.02
2022-12-09T22:54:44.933Z,98031.69
2022-12-09T22:57:46.682Z,98029.25
2022-12-09T23:00:49.207Z,98035.42
2022-12-09T23:03:50.908Z,98028.20
2022-12-09T23:06:52.694Z,98020.98
2022-12-09T23:09:54.295Z,98017.16
2022-12-09T23:12:56.180Z,98014.10
2022-12-09T23:16:01.888Z,98019.18
2022-12-09T23:19:03.824Z,98021.23
2022-12-09T23:22:05.626Z,98019.54
2022-12-09T23:25:07.485Z,98014.77
2022-12-09T23:28:11.524Z,98016.73
2022-12-09T23:31:14.764Z,98009.77
2022-12-09T23:34:16.643Z,98008.16
2022-12-09T23:37:18.424Z,98015.46
2022-12-09T23:40:20.052Z,98010.54
2022-12-09T23:43:21.745Z,98016.45
2022-12-09T23:46:24.915Z,98019.21
2022-12-09T23:49:26.804Z,98018.73
2022-12-09T23:52:28.476Z,98013.80
2022-12-09T23:55:30.131Z,98008.55
2022-12-09T23:58:31.852Z,98000.07
